createdAt,value
2023-02-02T00:02:08.154Z,21.77
2023-02-02T00:04:38.520Z,25.45
2023-02-02T00:07:09.922Z,21.08
2023-02-02T00:09:40.251Z,26.70
2023-02-02T00:12:11.671Z,61.90
2023-02-02T00:14:42.401Z,56.45
2023-02-02T00:17:13.656Z,60.42
2023-02-02T00:19:47.644Z,51.08
2023-02-02T00:22:20.534Z,45.53
2023-02-02T00:24:50.754Z,46.05
2023-02-02T00:27:23.453Z,40.97
2023-02-02T00:29:54.697Z,38.60
2023-02-02T00:32:25.922Z,34.30
2023-02-02T00:34:59.357Z,40.13
2023-02-02T00:37:30.017Z,32.65
2023-02-02T00:40:00.768Z,37.20
2023-02-02T00:42:32.266Z,30.65
2023-02-02T00:45:18.790Z,35.08
2023-02-02T00:47:50.745Z,38.47
2023-02-02T00:50:22.917Z,40.08
2023-02-02T00:52:54.199Z,24.88
2023-02-02T00:55:25.188Z,33.53
2023-02-02T00:57:56.039Z,33.83
2023-02-02T01:00:28.168Z,29.40
2023-02-02T01:03:05.207Z,33.45
2023-02-02T01:05:38.523Z,26.40
2023-02-02T01:08:09.478Z,24.35
2023-02-02T01:10:40.506Z,24.75
2023-02-02T01:13:10.913Z,25.65
2023-02-02T01:15:41.504Z,27.60
2023-02-02T01:18:12.278Z,19.02
2023-02-02T01:20:42.978Z,13.32
2023-02-02T01:23:16.595Z,12.85
2023-02-02T01:25:47.854Z,13.43
2023-02-02T01:28:18.516Z,13.10
2023-02-02T01:30:49.932Z,15.73
2023-02-02T01:33:20.732Z,14.93
2023-02-02T01:35:57.426Z,12.40
2023-02-02T01:38:27.952Z,11.27
2023-02-02T01:40:59.360Z,15.38
2023-02-02T01:43:50.456Z,10.38
2023-02-02T01:46:24.313Z,8.90
2023-02-02T01:49:18.244Z,12.73
2023-02-02T01:52:07.903Z,9.23
2023-02-02T01:54:45.616Z,14.07
2023-02-02T01:57:24.937Z,8.90
2023-02-02T01:59:57.036Z,4.30
2023-02-02T02:02:28.977Z,6.50
2023-02-02T02:05:02.986Z,8.15
2023-02-02T02:07:33.857Z,6.63
2023-02-02T02:10:04.434Z,6.72
2023-02-02T02:12:35.729Z,5.55
2023-02-02T02:15:26.587Z,7.70
2023-02-02T02:18:13.367Z,10.13
2023-02-02T02:21:23.155Z,9.02
2023-02-02T02:24:42.859Z,8.90
2023-02-02T02:27:43.440Z,7.43
2023-02-02T02:30:17.269Z,9.00
2023-02-02T02:33:15.156Z,6.70
2023-02-02T02:36:06.939Z,4.68
2023-02-02T02:38:44.729Z,7.60
2023-02-02T02:41:23.639Z,5.57
2023-02-02T02:44:00.733Z,6.22
2023-02-02T02:46:32.561Z,6.90
2023-02-02T02:49:04.122Z,5.00
2023-02-02T02:51:54.621Z,4.00
2023-02-02T02:54:44.158Z,7.57
2023-02-02T02:57:36.285Z,4.00
2023-02-02T03:00:28.394Z,4.03
2023-02-02T03:03:16.316Z,5.07
2023-02-02T03:05:56.251Z,2.45
2023-02-02T03:08:42.551Z,4.03
2023-02-02T03:11:15.672Z,5.53
2023-02-02T03:13:46.330Z,6.28
2023-02-02T03:16:18.414Z,18.00
2023-02-02T03:18:48.929Z,21.35
2023-02-02T03:21:21.939Z,5.20
2023-02-02T03:23:52.563Z,5.03
2023-02-02T03:26:23.759Z,8.48
2023-02-02T03:28:56.228Z,5.65
2023-02-02T03:31:31.803Z,5.20
2023-02-02T03:34:02.765Z,4.60
2023-02-02T03:36:33.935Z,4.20
2023-02-02T03:39:04.913Z,6.30
2023-02-02T03:41:35.945Z,7.47
2023-02-02T03:44:07.005Z,4.53
2023-02-02T03:46:37.821Z,4.25
2023-02-02T03:49:08.607Z,4.88
2023-02-02T03:51:40.370Z,4.47
2023-02-02T03:54:12.085Z,2.72
2023-02-02T03:56:43.607Z,3.35
2023-02-02T03:59:14.865Z,3.53
2023-02-02T04:01:45.658Z,3.53
2023-02-02T04:04:16.751Z,3.08
2023-02-02T04:06:51.220Z,14.25
2023-02-02T04:09:22.339Z,20.95
2023-02-02T04:11:52.802Z,19.60
2023-02-02T04:14:23.377Z,22.33
2023-02-02T04:16:54.482Z,23.00
2023-02-02T04:19:25.084Z,22.63
2023-02-02T04:21:56.179Z,21.38
2023-02-02T04:24:27.927Z,21.70
2023-02-02T04:26:58.631Z,19.98
2023-02-02T04:29:30.750Z,23.02
2023-02-02T04:32:01.633Z,23.98
2023-02-02T04:34:34.909Z,28.00
2023-02-02T04:37:05.385Z,23.77
2023-02-02T04:39:35.975Z,23.88
2023-02-02T04:42:08.420Z,20.33
2023-02-02T04:44:39.103Z,22.80
2023-02-02T04:47:10.162Z,20.73
2023-02-02T04:49:44.379Z,20.10
2023-02-02T04:52:15.507Z,20.25
2023-02-02T04:54:46.577Z,22.17
2023-02-02T04:57:17.110Z,21.75
2023-02-02T04:59:48.100Z,17.38
2023-02-02T05:02:18.926Z,17.70
2023-02-02T05:04:49.453Z,25.40
2023-02-02T05:07:29.861Z,18.38
2023-02-02T05:10:01.172Z,19.35
2023-02-02T05:12:32.311Z,14.40
2023-02-02T05:15:04.459Z,20.13
2023-02-02T05:17:34.830Z,14.38
2023-02-02T05:20:06.436Z,13.55
2023-02-02T05:22:36.912Z,18.02
2023-02-02T05:25:08.881Z,12.35
2023-02-02T05:27:39.812Z,17.20
2023-02-02T05:30:14.862Z,20.15
2023-02-02T05:32:47.076Z,17.23
2023-02-02T05:35:17.828Z,21.95
2023-02-02T05:37:48.878Z,11.82
2023-02-02T05:40:19.751Z,24.45
2023-02-02T05:42:53.151Z,17.10
2023-02-02T05:45:26.844Z,18.88
2023-02-02T05:47:57.754Z,17.35
2023-02-02T05:50:28.476Z,16.65
2023-02-02T05:53:08.014Z,15.75
2023-02-02T05:55:38.762Z,11.70
2023-02-02T05:58:09.565Z,16.17
2023-02-02T06:00:43.449Z,15.55
2023-02-02T06:03:14.784Z,18.15
2023-02-02T06:05:45.828Z,16.58
2023-02-02T06:08:16.414Z,13.80
2023-02-02T06:10:47.485Z,17.65
2023-02-02T06:13:17.925Z,21.08
2023-02-02T06:15:48.441Z,18.63
2023-02-02T06:18:30.892Z,19.65
2023-02-02T06:21:02.567Z,17.20
2023-02-02T06:23:34.951Z,14.25
2023-02-02T06:26:05.809Z,16.55
2023-02-02T06:28:37.121Z,15.52
2023-02-02T06:31:09.613Z,18.42
2023-02-02T06:33:41.247Z,13.35
2023-02-02T06:36:11.718Z,12.95
2023-02-02T06:38:42.734Z,12.82
2023-02-02T06:41:13.864Z,11.43
2023-02-02T06:43:44.280Z,11.63
2023-02-02T06:46:14.886Z,16.95
2023-02-02T06:48:45.314Z,11.05
2023-02-02T06:51:18.559Z,11.48
2023-02-02T06:53:50.538Z,8.55
2023-02-02T06:56:28.432Z,14.68
2023-02-02T06:58:59.303Z,10.35
2023-02-02T07:01:30.199Z,12.35
2023-02-02T07:04:01.022Z,14.13
2023-02-02T07:06:31.928Z,15.30
2023-02-02T07:09:03.568Z,10.23
2023-02-02T07:11:37.354Z,13.18
2023-02-02T07:14:10.387Z,12.98
2023-02-02T07:16:44.403Z,14.90
2023-02-02T07:19:15.241Z,19.27
2023-02-02T07:21:46.615Z,10.82
2023-02-02T07:24:18.038Z,12.38
2023-02-02T07:26:48.626Z,14.38
2023-02-02T07:29:21.614Z,19.92
2023-02-02T07:31:52.809Z,13.57
2023-02-02T07:34:23.823Z,16.02
2023-02-02T07:36:56.422Z,13.60
2023-02-02T07:39:27.232Z,13.38
2023-02-02T07:41:58.236Z,13.05
2023-02-02T07:44:37.757Z,16.40
2023-02-02T07:47:09.271Z,20.27
2023-02-02T07:49:40.027Z,19.20
2023-02-02T07:52:10.486Z,17.10
2023-02-02T07:54:41.038Z,14.77
2023-02-02T07:57:14.124Z,21.20
2023-02-02T07:59:44.760Z,15.48
2023-02-02T08:02:15.232Z,13.43
2023-02-02T08:04:46.386Z,15.80
2023-02-02T08:07:17.635Z,14.68
2023-02-02T08:09:49.508Z,12.02
2023-02-02T08:12:24.883Z,9.18
2023-02-02T08:14:56.744Z,11.18
2023-02-02T08:17:30.489Z,23.55
2023-02-02T08:20:01.291Z,20.25
2023-02-02T08:22:35.676Z,18.48
2023-02-02T08:25:06.670Z,12.00
2023-02-02T08:27:39.159Z,18.45
2023-02-02T08:30:10.871Z,19.13
2023-02-02T08:32:41.384Z,11.40
2023-02-02T08:35:11.889Z,12.90
2023-02-02T08:37:42.686Z,16.40
2023-02-02T08:40:14.292Z,10.52
2023-02-02T08:42:47.190Z,19.13
2023-02-02T08:46:01.996Z,16.83
2023-02-02T08:48:11.977Z,28.15
2023-02-02T08:50:43.008Z,16.00
2023-02-02T08:53:13.589Z,18.17
2023-02-02T08:55:47.040Z,10.20
2023-02-02T08:58:17.690Z,12.90
2023-02-02T09:00:51.755Z,11.82
2023-02-02T09:03:23.520Z,13.40
2023-02-02T09:05:53.917Z,11.15
2023-02-02T09:08:24.641Z,20.98
2023-02-02T09:10:55.772Z,18.70
2023-02-02T09:13:26.897Z,13.30
2023-02-02T09:16:01.937Z,9.13
2023-02-02T09:18:32.690Z,13.82
2023-02-02T09:21:06.382Z,12.55
2023-02-02T09:23:39.428Z,7.85
2023-02-02T09:26:16.284Z,8.15
2023-02-02T09:28:55.642Z,12.20
2023-02-02T09:31:28.123Z,11.05
2023-02-02T09:34:05.315Z,16.23
2023-02-02T09:36:36.160Z,18.50
2023-02-02T09:39:08.496Z,28.85
2023-02-02T09:41:41.845Z,25.48
2023-02-02T09:44:36.672Z,14.63
2023-02-02T09:47:39.487Z,20.98
2023-02-02T09:50:41.539Z,34.47
2023-02-02T09:53:14.932Z,30.40
2023-02-02T09:55:52.254Z,24.75
2023-02-02T09:58:34.472Z,16.08
2023-02-02T10:01:21.820Z,21.40
2023-02-02T10:04:11.765Z,21.65
2023-02-02T10:06:47.918Z,27.00
2023-02-02T10:09:27.448Z,19.92
2023-02-02T10:12:18.813Z,28.13
2023-02-02T10:15:25.356Z,19.70
2023-02-02T10:18:06.208Z,31.90
2023-02-02T10:21:26.353Z,23.90
2023-02-02T10:24:01.282Z,17.77
2023-02-02T10:26:48.431Z,21.08
2023-02-02T10:29:48.016Z,19.00
2023-02-02T10:32:37.951Z,21.77
2023-02-02T10:35:15.001Z,26.83
2023-02-02T10:38:23.898Z,22.45
2023-02-02T10:41:08.888Z,23.90
2023-02-02T10:43:48.532Z,18.05
2023-02-02T10:46:26.605Z,22.20
2023-02-02T10:49:24.477Z,17.50
2023-02-02T10:52:14.808Z,22.05
2023-02-02T10:55:02.891Z,40.45
2023-02-02T10:57:55.537Z,23.50
2023-02-02T11:00:59.283Z,27.52
2023-02-02T11:03:35.782Z,31.75
2023-02-02T11:06:27.741Z,30.38
2023-02-02T11:09:00.468Z,22.13
2023-02-02T11:11:46.386Z,26.60
2023-02-02T11:15:16.937Z,27.60
2023-02-02T11:17:48.778Z,27.48
2023-02-02T11:20:38.134Z,22.00
2023-02-02T11:23:20.146Z,23.38
2023-02-02T11:26:00.566Z,22.90
2023-02-02T11:28:35.733Z,19.20
2023-02-02T11:31:07.240Z,25.17
2023-02-02T11:33:38.439Z,15.20
2023-02-02T11:36:25.409Z,7.75
2023-02-02T11:39:21.850Z,5.60
2023-02-02T11:41:53.138Z,8.05
2023-02-02T11:44:29.736Z,8.32
2023-02-02T11:47:01.706Z,9.40
2023-02-02T11:49:34.914Z,8.73
2023-02-02T11:52:18.346Z,6.70
2023-02-02T11:54:51.796Z,7.50
2023-02-02T11:57:24.134Z,4.43
2023-02-02T12:00:12.717Z,5.35
2023-02-02T12:02:52.314Z,7.50
2023-02-02T12:05:24.676Z,6.80
2023-02-02T12:07:56.077Z,5.07
2023-02-02T12:10:44.953Z,8.50
2023-02-02T12:13:30.403Z,5.75
2023-02-02T12:16:10.479Z,5.57
2023-02-02T12:18:46.785Z,4.47
2023-02-02T12:21:54.930Z,12.52
2023-02-02T12:24:37.602Z,23.10
2023-02-02T12:27:32.548Z,19.92
2023-02-02T12:30:25.556Z,14.20
2023-02-02T12:33:23.101Z,14.77
2023-02-02T12:36:12.724Z,13.43
2023-02-02T12:38:59.230Z,8.00
2023-02-02T12:42:03.406Z,11.90
2023-02-02T12:44:51.697Z,14.93
2023-02-02T12:47:29.650Z,8.77
2023-02-02T12:50:06.642Z,7.63
2023-02-02T12:52:48.230Z,5.88
2023-02-02T12:55:25.522Z,6.93
2023-02-02T12:58:05.195Z,9.70
2023-02-02T13:01:06.203Z,9.52
2023-02-02T13:03:47.273Z,9.73
2023-02-02T13:06:35.163Z,6.47
2023-02-02T13:09:14.360Z,8.23
2023-02-02T13:12:00.009Z,8.07
2023-02-02T13:14:47.137Z,8.77
2023-02-02T13:17:24.081Z,9.13
2023-02-02T13:19:59.966Z,10.45
2023-02-02T13:22:35.746Z,6.97
2023-02-02T13:25:12.086Z,5.60
2023-02-02T13:27:43.652Z,7.30
2023-02-02T13:30:36.011Z,7.97
2023-02-02T13:33:24.824Z,5.55
2023-02-02T13:36:08.105Z,6.50
2023-02-02T13:38:43.125Z,6.63
2023-02-02T13:41:14.468Z,4.20
2023-02-02T13:44:26.128Z,3.08
2023-02-02T13:47:07.768Z,5.70
2023-02-02T13:49:44.250Z,6.53
2023-02-02T13:52:43.070Z,4.20
2023-02-02T13:55:17.533Z,4.75
2023-02-02T13:57:53.199Z,3.50
2023-02-02T14:00:27.825Z,3.35
2023-02-02T14:03:07.425Z,3.85
2023-02-02T14:05:43.432Z,5.55
2023-02-02T14:08:20.215Z,8.65
2023-02-02T14:10:53.539Z,6.35
2023-02-02T14:13:45.401Z,5.68
2023-02-02T14:16:43.935Z,7.30
2023-02-02T14:19:30.370Z,6.55
2023-02-02T14:22:06.962Z,5.43
2023-02-02T14:24:38.434Z,6.22
2023-02-02T14:27:09.388Z,4.93
2023-02-02T14:29:48.550Z,5.50
2023-02-02T14:32:29.379Z,5.50
2023-02-02T14:35:15.906Z,5.38
2023-02-02T14:38:05.869Z,3.88
2023-02-02T14:41:05.722Z,6.20
2023-02-02T14:43:51.939Z,7.13
2023-02-02T14:46:35.709Z,7.07
2023-02-02T14:49:08.035Z,5.40
2023-02-02T14:51:49.442Z,5.47
2023-02-02T14:54:41.867Z,3.70
2023-02-02T14:57:30.180Z,5.22
2023-02-02T15:00:04.729Z,4.10
2023-02-02T15:02:39.559Z,3.95
2023-02-02T15:05:31.658Z,4.97
2023-02-02T15:08:16.926Z,5.30
2023-02-02T15:10:55.551Z,3.50
2023-02-02T15:13:30.422Z,6.70
2023-02-02T15:16:14.899Z,7.18
2023-02-02T15:18:53.819Z,5.85
2023-02-02T15:21:24.797Z,5.97
2023-02-02T15:23:55.968Z,4.00
2023-02-02T15:26:36.239Z,5.55
2023-02-02T15:29:17.941Z,8.05
2023-02-02T15:31:51.287Z,7.38
2023-02-02T15:34:44.215Z,7.60
2023-02-02T15:37:21.560Z,6.45
2023-02-02T15:39:59.119Z,6.40
2023-02-02T15:42:54.840Z,7.88
2023-02-02T15:45:44.281Z,7.93
2023-02-02T15:48:32.201Z,7.28
2023-02-02T15:51:18.703Z,7.03
2023-02-02T15:53:53.246Z,7.35
2023-02-02T15:56:26.038Z,7.10
2023-02-02T15:58:59.593Z,8.63
2023-02-02T16:01:33.927Z,6.85
2023-02-02T16:04:28.221Z,7.93
2023-02-02T16:06:59.148Z,6.95
2023-02-02T16:09:36.095Z,7.60
2023-02-02T16:12:09.929Z,18.55
2023-02-02T16:14:40.964Z,22.40
2023-02-02T16:17:30.087Z,19.88
2023-02-02T16:20:09.448Z,16.73
2023-02-02T16:22:41.303Z,22.25
2023-02-02T16:25:18.076Z,19.73
2023-02-02T16:27:49.639Z,21.65
2023-02-02T16:30:46.875Z,14.52
2023-02-02T16:33:35.467Z,20.15
2023-02-02T16:36:32.911Z,19.00
2023-02-02T16:39:17.148Z,21.67
2023-02-02T16:41:53.026Z,25.55
2023-02-02T16:44:34.219Z,23.73
2023-02-02T16:47:05.359Z,27.90
2023-02-02T16:49:36.118Z,26.85
2023-02-02T16:52:18.468Z,30.38
2023-02-02T16:54:54.462Z,29.90
2023-02-02T16:57:33.971Z,27.60
2023-02-02T17:00:08.448Z,25.58
2023-02-02T17:02:41.129Z,30.92
2023-02-02T17:05:23.263Z,26.95
2023-02-02T17:07:59.500Z,32.85
2023-02-02T17:10:37.463Z,35.35
2023-02-02T17:13:33.277Z,31.10
2023-02-02T17:16:04.560Z,36.80
2023-02-02T17:18:35.196Z,38.58
2023-02-02T17:21:25.120Z,35.45
2023-02-02T17:23:55.521Z,35.33
2023-02-02T17:26:25.913Z,39.97
2023-02-02T17:28:57.622Z,30.17
2023-02-02T17:31:28.490Z,38.78
2023-02-02T17:33:58.866Z,41.40
2023-02-02T17:36:30.217Z,34.38
2023-02-02T17:39:00.555Z,29.20
2023-02-02T17:41:30.973Z,33.80
2023-02-02T17:44:01.800Z,35.30
2023-02-02T17:46:33.379Z,34.15
2023-02-02T17:49:03.966Z,34.38
2023-02-02T17:51:42.050Z,37.05
2023-02-02T17:54:13.817Z,34.63
2023-02-02T17:56:45.021Z,35.40
2023-02-02T17:59:15.277Z,33.60
2023-02-02T18:01:46.635Z,38.53
2023-02-02T18:04:17.675Z,40.45
2023-02-02T18:06:48.046Z,31.27
2023-02-02T18:09:19.105Z,36.30
2023-02-02T18:11:50.819Z,28.33
2023-02-02T18:14:21.526Z,30.50
2023-02-02T18:16:52.106Z,26.55
2023-02-02T18:19:22.295Z,28.77
2023-02-02T18:21:53.223Z,31.30
2023-02-02T18:24:23.377Z,23.48
2023-02-02T18:26:53.921Z,20.38
2023-02-02T18:29:25.153Z,32.38
2023-02-02T18:31:55.727Z,26.63
2023-02-02T18:34:26.920Z,32.35
2023-02-02T18:36:57.266Z,24.90
2023-02-02T18:39:28.299Z,22.00
2023-02-02T18:41:59.716Z,23.48
2023-02-02T18:44:30.522Z,17.83
2023-02-02T18:47:00.934Z,19.33
2023-02-02T18:49:31.786Z,12.57
2023-02-02T18:52:03.336Z,17.42
2023-02-02T18:54:36.596Z,17.83
2023-02-02T18:57:06.825Z,18.98
2023-02-02T18:59:37.328Z,20.40
2023-02-02T19:02:09.528Z,20.10
2023-02-02T19:04:40.364Z,21.73
2023-02-02T19:07:28.996Z,22.40
2023-02-02T19:10:02.209Z,18.38
2023-02-02T19:12:32.798Z,25.40
2023-02-02T19:15:04.394Z,24.65
2023-02-02T19:17:34.807Z,28.23
2023-02-02T19:20:23.462Z,34.08
2023-02-02T19:23:19.427Z,46.00
2023-02-02T19:25:52.321Z,40.70
2023-02-02T19:28:30.106Z,33.55
2023-02-02T19:31:03.006Z,28.85
2023-02-02T19:33:50.292Z,26.38
2023-02-02T19:36:26.302Z,24.92
2023-02-02T19:39:21.182Z,28.05
2023-02-02T19:41:52.491Z,25.40
2023-02-02T19:44:24.727Z,25.77
2023-02-02T19:46:57.655Z,30.52
2023-02-02T19:49:28.293Z,27.50
2023-02-02T19:52:00.386Z,27.27
2023-02-02T19:54:37.644Z,27.42
2023-02-02T19:57:17.043Z,25.60
2023-02-02T19:59:49.958Z,22.42
2023-02-02T20:02:56.686Z,20.20
2023-02-02T20:05:34.836Z,20.42
2023-02-02T20:08:25.061Z,21.50
2023-02-02T20:10:57.702Z,17.55
2023-02-02T20:13:33.914Z,18.83
2023-02-02T20:16:05.962Z,18.48
2023-02-02T20:19:10.822Z,16.90
2023-02-02T20:21:45.260Z,15.68
2023-02-02T20:24:19.961Z,16.50
2023-02-02T20:27:09.772Z,12.25
2023-02-02T20:29:44.415Z,15.65
2023-02-02T20:32:27.448Z,22.77
2023-02-02T20:35:00.176Z,19.23
2023-02-02T20:37:37.601Z,16.73
2023-02-02T20:40:26.751Z,16.85
2023-02-02T20:42:59.285Z,16.23
2023-02-02T20:45:29.974Z,16.05
2023-02-02T20:48:00.719Z,17.05
2023-02-02T20:50:31.032Z,18.38
2023-02-02T20:53:01.618Z,19.85
2023-02-02T20:55:32.480Z,25.52
2023-02-02T20:58:04.667Z,19.55
2023-02-02T21:00:35.393Z,21.80
2023-02-02T21:03:06.627Z,20.30
2023-02-02T21:05:37.950Z,16.90
2023-02-02T21:08:08.458Z,18.30
2023-02-02T21:10:39.156Z,19.13
2023-02-02T21:13:09.915Z,21.52
2023-02-02T21:15:40.553Z,22.13
2023-02-02T21:18:11.272Z,17.92
2023-02-02T21:20:42.200Z,19.33
2023-02-02T21:23:15.431Z,17.77
2023-02-02T21:25:46.024Z,22.13
2023-02-02T21:28:16.400Z,18.20
2023-02-02T21:30:46.847Z,19.15
2023-02-02T21:33:18.453Z,16.80
2023-02-02T21:35:48.860Z,22.70
2023-02-02T21:38:19.354Z,15.88
2023-02-02T21:40:51.042Z,17.90
2023-02-02T21:43:21.496Z,21.83
2023-02-02T21:45:52.658Z,27.35
2023-02-02T21:48:31.184Z,20.05
2023-02-02T21:51:18.035Z,17.98
2023-02-02T21:53:48.526Z,18.67
2023-02-02T21:56:39.892Z,16.90
2023-02-02T21:59:39.451Z,22.83
2023-02-02T22:02:43.330Z,16.05
2023-02-02T22:05:15.171Z,17.25
2023-02-02T22:07:49.300Z,17.50
2023-02-02T22:10:25.376Z,20.90
2023-02-02T22:12:56.306Z,22.70
2023-02-02T22:15:30.672Z,23.27
2023-02-02T22:18:01.365Z,26.02
2023-02-02T22:20:36.760Z,26.33
2023-02-02T22:23:09.806Z,25.45
2023-02-02T22:25:42.279Z,20.75
2023-02-02T22:28:50.699Z,24.52
2023-02-02T22:31:21.062Z,29.67
2023-02-02T22:33:51.656Z,27.50
2023-02-02T22:36:22.401Z,25.92
2023-02-02T22:38:53.618Z,27.42
2023-02-02T22:41:23.838Z,25.15
2023-02-02T22:43:57.524Z,31.63
2023-02-02T22:46:27.941Z,30.95
2023-02-02T22:48:58.525Z,24.33
2023-02-02T22:51:29.548Z,33.70
2023-02-02T22:54:00.425Z,27.95
2023-02-02T22:56:31.231Z,21.88
2023-02-02T22:59:02.643Z,21.23
2023-02-02T23:01:33.191Z,17.88
2023-02-02T23:04:03.575Z,18.83
2023-02-02T23:06:34.226Z,24.33
2023-02-02T23:09:06.936Z,27.83
2023-02-02T23:11:37.373Z,24.40
2023-02-02T23:14:08.795Z,27.48
2023-02-02T23:16:39.512Z,27.63
2023-02-02T23:19:09.836Z,21.83
2023-02-02T23:21:40.104Z,19.02
2023-02-02T23:24:11.051Z,17.55
2023-02-02T23:26:43.982Z,17.40
2023-02-02T23:29:14.328Z,23.80
2023-02-02T23:31:45.400Z,22.02
2023-02-02T23:34:15.871Z,16.30
2023-02-02T23:37:06.684Z,18.60
2023-02-02T23:39:37.746Z,20.20
2023-02-02T23:42:08.159Z,14.25
2023-02-02T23:44:39.750Z,17.10
2023-02-02T23:47:11.117Z,15.52
2023-02-02T23:49:41.945Z,19.38
2023-02-02T23:52:15.439Z,17.45
2023-02-02T23:54:47.816Z,20.45
2023-02-02T23:57:21.703Z,18.65
2023-02-02T23:59:52.351Z,21.63
